Terminal Aerodrome Forecast
Issued by NWS Springfield, MO

Home | Current Version | Previous Version | Text Only | Print | Product List | Glossary On
Versions: 1 2 3 4 5 6 7 8 9 10 11 12
000
FTUS43 KSGF 261120
TAFSGF
TAF
KSGF 261120Z 2612/2712 16004KT P6SM BKN040 BKN150
     FM261500 21004KT P6SM VCTS BKN040CB
     FM262100 17006KT P6SM VCTS BKN040CB PROB30 2621/2703 3SM -TSRA
      OVC040CB
     FM270400 15006KT P6SM BKN250=

USA.gov is the U.S. government's official web portal to all federal, state and local government web resources and services.